Time;durP1;ratioP1;P1;durP2;ratioP2;P2;SDS_P1;SDS_P2;PMS_P1;PMS_P2;Temp;Humidity;BMP_temperature;BMP_pressure;BME280_temperature;BME280_humidity;BME280_pressure;Samples;Min_cycle;Max_cycle;Signal;HPM_P1;HPM_P2
2023/07/02 00:02:16;;;;;;;8.60;5.90;;;;;;;24.26;53.78;99329.48;106012;1254;60450;-73
2023/07/02 00:04:43;;;;;;;8.90;6.30;;;;;;;24.25;53.87;99330.64;105946;1257;64990;-73
2023/07/02 00:07:10;;;;;;;6.80;6.10;;;;;;;24.23;53.99;99330.40;105857;1257;60509;-74
2023/07/02 00:09:37;;;;;;;7.30;5.80;;;;;;;24.21;54.07;99326.13;105922;1255;64346;-73
2023/07/02 00:12:04;;;;;;;8.20;5.90;;;;;;;24.20;54.08;99326.60;105934;1254;60546;-76
2023/07/02 00:14:30;;;;;;;7.30;6.50;;;;;;;24.20;54.15;99323.73;105935;1254;60306;-81
2023/07/02 00:16:57;;;;;;;11.70;6.50;;;;;;;24.20;54.19;99323.57;105942;1252;65214;-80
2023/07/02 00:19:24;;;;;;;7.10;6.20;;;;;;;24.19;54.28;99322.09;105995;1257;60679;-73
2023/07/02 00:21:53;;;;;;;6.70;6.00;;;;;;;24.16;54.34;99320.30;105978;1255;60498;-78
2023/07/02 00:24:20;;;;;;;6.60;6.00;;;;;;;24.14;54.47;99325.11;105776;1257;60580;-73
2023/07/02 00:26:46;;;;;;;7.00;6.10;;;;;;;24.13;54.65;99326.55;106097;1254;60325;-74
2023/07/02 00:29:14;;;;;;;8.70;6.40;;;;;;;24.11;54.72;99329.80;105904;1257;65093;-74
2023/07/02 00:31:42;;;;;;;8.60;5.90;;;;;;;24.10;54.60;99328.20;105789;1256;60541;-74
2023/07/02 00:34:09;;;;;;;7.60;6.00;;;;;;;24.08;54.72;99326.53;105804;1263;63838;-74
2023/07/02 00:36:36;;;;;;;8.90;6.50;;;;;;;24.05;55.01;99326.64;105944;1256;60420;-74
2023/07/02 00:39:03;;;;;;;8.70;6.30;;;;;;;24.02;55.29;99326.94;105925;1254;60533;-74
2023/07/02 00:41:30;;;;;;;9.80;6.90;;;;;;;23.99;55.53;99324.33;105749;1258;65020;-73
2023/07/02 00:43:57;;;;;;;6.80;6.10;;;;;;;23.94;55.78;99325.05;106028;1255;60446;-75
2023/07/02 00:46:25;;;;;;;8.40;6.70;;;;;;;23.92;55.94;99326.83;105861;1256;63526;-73
2023/07/02 00:48:54;;;;;;;7.70;6.80;;;;;;;23.88;56.15;99327.97;105922;1256;60451;-74
2023/07/02 00:51:24;;;;;;;9.70;6.80;;;;;;;23.86;56.14;99329.96;105836;1254;60362;-74
2023/07/02 00:53:52;;;;;;;8.00;6.80;;;;;;;23.84;56.19;99329.58;105678;1259;65189;-73
2023/07/02 00:56:19;;;;;;;7.50;6.80;;;;;;;23.81;56.20;99332.06;105966;1255;60498;-72
2023/07/02 00:58:50;;;;;;;9.40;6.90;;;;;;;23.81;56.19;99329.50;106135;1256;64800;-72
2023/07/02 01:01:18;;;;;;;7.90;7.10;;;;;;;23.79;56.31;99329.37;106028;1254;60447;-72
2023/07/02 01:03:59;;;;;;;7.40;6.70;;;;;;;23.77;56.29;99334.34;105926;1254;60530;-73
2023/07/02 01:06:29;;;;;;;9.20;7.00;;;;;;;23.76;56.38;99334.91;105732;1257;65074;-73
2023/07/02 01:09:04;;;;;;;7.90;7.00;;;;;;;23.74;56.42;99331.66;105764;1264;60315;-74
2023/07/02 01:11:42;;;;;;;8.50;7.40;;;;;;;23.71;56.58;99326.36;105628;1253;64002;-72
2023/07/02 01:14:16;;;;;;;8.50;7.30;;;;;;;23.66;56.79;99330.41;105910;1257;60527;-74
2023/07/02 01:16:43;;;;;;;9.40;7.10;;;;;;;23.58;57.06;99336.21;105980;1259;60515;-73
2023/07/02 01:19:45;;;;;;;10.90;7.30;;;;;;;23.52;57.23;99332.77;105969;1257;65098;-73
2023/07/02 01:22:12;;;;;;;7.50;6.80;;;;;;;23.49;57.29;99331.49;105985;1259;60574;-72
2023/07/02 01:24:39;;;;;;;7.40;6.70;;;;;;;23.47;57.28;99328.58;105844;1266;64095;-73
2023/07/02 01:27:05;;;;;;;8.40;7.40;;;;;;;23.43;57.38;99323.60;105793;1256;61246;-73
2023/07/02 01:29:36;;;;;;;8.20;7.40;;;;;;;23.39;57.36;99326.20;105765;1260;61539;-73
2023/07/02 01:32:03;;;;;;;8.30;7.50;;;;;;;23.35;57.52;99327.16;105928;1256;66017;-73
2023/07/02 01:34:31;;;;;;;8.60;7.30;;;;;;;23.33;57.60;99325.00;105746;1257;61215;-73
2023/07/02 01:36:58;;;;;;;8.30;7.30;;;;;;;23.30;57.69;99321.49;105800;1254;63867;-73
2023/07/02 01:39:24;;;;;;;8.10;7.30;;;;;;;23.30;57.64;99316.27;105793;1253;61327;-73
2023/07/02 01:41:53;;;;;;;7.80;7.00;;;;;;;23.29;57.88;99310.78;105895;1257;61288;-74
2023/07/02 01:44:20;;;;;;;7.90;7.20;;;;;;;23.26;57.84;99309.73;105645;1255;65799;-73
2023/07/02 01:46:48;;;;;;;7.90;7.10;;;;;;;23.24;57.93;99309.14;105788;1257;61266;-73
2023/07/02 01:49:16;;;;;;;8.50;7.30;;;;;;;23.21;58.05;99307.83;105761;1254;63669;-72
2023/07/02 01:51:50;;;;;;;9.00;8.10;;;;;;;23.19;58.15;99314.40;105881;1254;61358;-73
2023/07/02 01:54:17;;;;;;;9.10;8.20;;;;;;;23.15;58.33;99313.17;105490;1257;61459;-74
2023/07/02 01:56:44;;;;;;;9.00;7.80;;;;;;;23.12;58.43;99312.92;105631;1259;66047;-74
2023/07/02 01:59:11;;;;;;;8.20;7.40;;;;;;;23.11;58.46;99311.61;105730;1259;61247;-74
2023/07/02 02:01:41;;;;;;;9.30;7.70;;;;;;;23.13;58.42;99309.92;105987;1256;64054;-74
2023/07/02 02:04:09;;;;;;;8.40;7.60;;;;;;;23.15;58.42;99308.20;105742;1254;61342;-74
2023/07/02 02:06:36;;;;;;;9.40;7.70;;;;;;;23.16;58.40;99309.80;105925;1257;61349;-74
2023/07/02 02:09:04;;;;;;;10.80;7.80;;;;;;;23.15;58.25;99302.88;105751;1260;65854;-74
2023/07/02 02:11:33;;;;;;;9.40;7.70;;;;;;;23.14;58.17;99306.25;105820;1256;61327;-74
2023/07/02 02:14:01;;;;;;;8.40;7.60;;;;;;;23.12;58.33;99303.71;105812;1258;63842;-74
2023/07/02 02:16:28;;;;;;;9.10;8.20;;;;;;;23.11;58.21;99303.36;105880;1259;61292;-74
2023/07/02 02:18:55;;;;;;;8.40;7.60;;;;;;;23.12;58.18;99309.23;105838;1254;61218;-73
2023/07/02 02:21:22;;;;;;;8.20;7.40;;;;;;;23.13;58.20;99307.30;105969;1254;64813;-73
2023/07/02 02:23:49;;;;;;;8.50;7.70;;;;;;;23.13;58.06;99308.59;106033;1254;61272;-79
2023/07/02 02:26:16;;;;;;;9.40;7.80;;;;;;;23.12;58.18;99312.17;106012;1258;63854;-73
2023/07/02 02:28:43;;;;;;;8.40;7.60;;;;;;;23.09;58.19;99313.14;106302;1254;61275;-73
2023/07/02 02:31:10;;;;;;;9.20;8.30;;;;;;;23.08;58.28;99308.73;105790;1258;61292;-75
2023/07/02 02:33:37;;;;;;;9.10;7.60;;;;;;;23.09;58.40;99313.72;105973;1259;66015;-74
2023/07/02 02:36:04;;;;;;;8.70;7.80;;;;;;;23.08;58.44;99312.20;105980;1259;61345;-78
2023/07/02 02:38:32;;;;;;;9.20;8.10;;;;;;;23.06;58.47;99310.43;106015;1257;64200;-74
2023/07/02 02:41:02;;;;;;;8.60;7.70;;;;;;;23.04;58.58;99309.10;105969;1252;61249;-75
2023/07/02 02:43:32;;;;;;;9.10;8.00;;;;;;;23.04;58.75;99311.95;105828;1257;61365;-75
2023/07/02 02:45:59;;;;;;;9.00;8.00;;;;;;;23.07;58.84;99313.23;107301;1254;65694;-73
2023/07/02 02:48:27;;;;;;;8.90;8.00;;;;;;;23.10;58.74;99313.75;106136;1257;61335;-73
2023/07/02 02:50:54;;;;;;;8.30;7.60;;;;;;;23.12;58.82;99307.86;106003;1254;63878;-74
2023/07/02 02:53:21;;;;;;;10.40;7.70;;;;;;;23.14;58.75;99308.95;106065;1253;61227;-74
2023/07/02 02:55:48;;;;;;;9.40;7.70;;;;;;;23.17;58.81;99304.29;105932;1254;61319;-75
2023/07/02 02:58:15;;;;;;;8.40;7.60;;;;;;;23.18;58.81;99302.81;105924;1254;66729;-78
2023/07/02 03:00:45;;;;;;;9.10;7.70;;;;;;;23.21;58.75;99302.43;105978;1255;61307;-79
2023/07/02 03:03:13;;;;;;;9.10;7.90;;;;;;;23.24;58.83;99301.42;105805;1257;62690;-75
2023/07/02 03:05:40;;;;;;;8.70;7.90;;;;;;;23.26;58.78;99301.02;105771;1253;61307;-75
2023/07/02 03:08:07;;;;;;;8.20;7.50;;;;;;;23.28;58.89;99300.55;105903;1256;63263;-79
2023/07/02 03:10:33;;;;;;;8.30;7.50;;;;;;;23.32;59.04;99300.61;106000;1256;61185;-73
2023/07/02 03:13:00;;;;;;;8.60;7.70;;;;;;;23.35;59.19;99299.31;105872;1257;61090;-77
2023/07/02 03:15:26;;;;;;;8.60;7.70;;;;;;;23.38;59.07;99295.45;106043;1258;63991;-74
2023/07/02 03:17:53;;;;;;;9.20;8.30;;;;;;;23.41;59.14;99298.59;105806;1254;61325;-73
2023/07/02 03:20:20;;;;;;;9.70;8.10;;;;;;;23.44;59.04;99300.34;105839;1254;61227;-73
2023/07/02 03:22:47;;;;;;;9.60;8.30;;;;;;;23.48;58.73;99299.91;105795;1255;65735;-73
2023/07/02 03:25:14;;;;;;;9.60;8.30;;;;;;;23.53;58.30;99301.15;105777;1254;61297;-75
2023/07/02 03:27:41;;;;;;;9.30;8.10;;;;;;;23.61;58.02;99300.38;105833;1254;63849;-74
2023/07/02 03:30:08;;;;;;;10.00;7.90;;;;;;;23.67;57.97;99298.08;105859;1256;61322;-73
2023/07/02 03:32:35;;;;;;;7.90;7.10;;;;;;;23.74;57.71;99300.02;105840;1254;61314;-73
2023/07/02 03:35:02;;;;;;;8.30;7.60;;;;;;;23.81;57.34;99303.58;105866;1256;65858;-74
2023/07/02 03:37:29;;;;;;;8.40;7.60;;;;;;;23.87;57.45;99302.59;105892;1253;61276;-74
2023/07/02 03:39:55;;;;;;;9.80;7.50;;;;;;;23.93;57.70;99301.33;105947;1254;63919;-74
2023/07/02 03:42:22;;;;;;;9.10;8.30;;;;;;;23.99;57.74;99299.52;105894;1253;61384;-76
2023/07/02 03:44:49;;;;;;;8.70;7.80;;;;;;;24.03;57.33;99295.84;105991;1252;61260;-74
2023/07/02 03:47:19;;;;;;;9.30;8.20;;;;;;;24.06;56.67;99294.23;105805;1256;65870;-73
2023/07/02 03:49:45;;;;;;;9.20;7.80;;;;;;;24.10;56.37;99296.91;105872;1256;61327;-77
2023/07/02 03:52:12;;;;;;;8.50;7.60;;;;;;;24.14;56.05;99292.86;106019;1256;63765;-76
2023/07/02 03:54:40;;;;;;;8.50;7.50;;;;;;;24.18;55.77;99291.04;106042;1253;61872;-74
2023/07/02 03:57:06;;;;;;;7.90;7.20;;;;;;;24.22;55.69;99293.70;105908;1254;61273;-76
2023/07/02 03:59:34;;;;;;;8.50;7.40;;;;;;;24.26;55.46;99295.45;105780;1257;66084;-74
2023/07/02 04:02:01;;;;;;;8.50;7.40;;;;;;;24.32;55.04;99300.09;105805;1254;61344;-74
2023/07/02 04:04:28;;;;;;;8.60;7.70;;;;;;;24.37;55.03;99301.41;106036;1253;63818;-73
2023/07/02 04:06:55;;;;;;;8.40;7.20;;;;;;;24.40;54.87;99302.55;105935;1254;61258;-74
2023/07/02 04:09:22;;;;;;;8.00;7.20;;;;;;;24.42;54.84;99306.13;105802;1254;61247;-74
2023/07/02 04:11:48;;;;;;;7.50;6.70;;;;;;;24.45;54.75;99309.02;106297;1254;66101;-74
2023/07/02 04:14:15;;;;;;;7.80;7.00;;;;;;;24.46;54.69;99306.95;105920;1266;61224;-73
2023/07/02 04:16:45;;;;;;;7.10;6.40;;;;;;;24.48;54.61;99304.34;105850;1258;64427;-73
2023/07/02 04:19:12;;;;;;;7.20;6.50;;;;;;;24.49;54.41;99305.28;105717;1254;61426;-72
2023/07/02 04:21:38;;;;;;;7.60;6.60;;;;;;;24.50;54.11;99302.39;106099;1253;61225;-73
2023/07/02 04:24:07;;;;;;;7.30;6.60;;;;;;;24.52;53.87;99301.25;106320;1256;65011;-73
2023/07/02 04:26:36;;;;;;;9.00;7.00;;;;;;;24.56;53.81;99303.33;106106;1257;61416;-72
2023/07/02 04:29:26;;;;;;;7.70;6.50;;;;;;;24.62;53.95;99301.02;106146;1254;63946;-73
2023/07/02 04:31:53;;;;;;;12.10;6.30;;;;;;;24.67;53.78;99300.68;106281;1255;61281;-75
2023/07/02 04:34:21;;;;;;;6.40;5.80;;;;;;;24.73;53.40;99303.30;106628;1254;61830;-73
2023/07/02 04:36:48;;;;;;;6.40;5.80;;;;;;;24.78;53.13;99304.51;106242;1252;65844;-73
2023/07/02 04:39:15;;;;;;;6.20;5.60;;;;;;;24.82;53.08;99304.89;106143;1257;61384;-73
2023/07/02 04:41:42;;;;;;;7.80;5.60;;;;;;;24.89;52.90;99303.21;106158;1254;61400;-74
2023/07/02 04:44:09;;;;;;;5.90;5.40;;;;;;;24.97;52.96;99303.52;106060;1259;61225;-74
2023/07/02 04:46:36;;;;;;;6.00;5.40;;;;;;;25.05;52.84;99303.23;106202;1254;61215;-73
2023/07/02 04:49:03;;;;;;;6.30;5.70;;;;;;;25.11;52.90;99306.85;106287;1254;65728;-74
2023/07/02 04:51:30;;;;;;;5.40;4.90;;;;;;;25.19;52.83;99302.08;106367;1255;61330;-75
2023/07/02 04:53:57;;;;;;;6.00;5.40;;;;;;;25.27;52.62;99299.46;106014;1257;63921;-74
2023/07/02 04:56:27;;;;;;;5.90;4.90;;;;;;;25.36;52.31;99302.10;106042;1253;62928;-72
2023/07/02 04:58:53;;;;;;;5.60;5.00;;;;;;;25.45;52.07;99302.52;106231;1258;61218;-73
2023/07/02 05:01:20;;;;;;;5.00;4.50;;;;;;;25.53;51.88;99302.64;106078;1253;64469;-74
2023/07/02 05:03:47;;;;;;;4.90;4.50;;;;;;;25.60;51.64;99306.67;106141;1257;61340;-74
2023/07/02 05:06:13;;;;;;;6.30;5.00;;;;;;;25.68;51.39;99304.82;106068;1256;61333;-74
2023/07/02 05:08:41;;;;;;;7.50;4.80;;;;;;;25.77;51.02;99301.13;106005;1257;61256;-73
2023/07/02 05:11:10;;;;;;;5.10;4.50;;;;;;;25.84;50.80;99301.18;106115;1254;61266;-74
2023/07/02 05:13:39;;;;;;;5.90;4.30;;;;;;;25.92;50.44;99301.57;106026;1257;67540;-74
2023/07/02 05:16:06;;;;;;;6.10;4.10;;;;;;;25.99;50.02;99302.42;106003;1254;61367;-75
2023/07/02 05:18:34;;;;;;;6.30;4.20;;;;;;;26.08;49.78;99300.12;106167;1256;63844;-73
2023/07/02 05:21:01;;;;;;;4.80;4.40;;;;;;;26.15;49.59;99300.07;106118;1255;61259;-73
2023/07/02 05:23:28;;;;;;;5.60;4.70;;;;;;;26.24;49.62;99299.70;106285;1254;61238;-74
2023/07/02 05:25:55;;;;;;;5.20;4.60;;;;;;;26.33;49.76;99301.89;106221;1257;65047;-73
2023/07/02 05:28:21;;;;;;;6.50;4.50;;;;;;;26.41;49.75;99297.25;106317;1254;61318;-74
2023/07/02 05:30:48;;;;;;;4.90;4.40;;;;;;;26.50;49.50;99297.64;106034;1254;64134;-75
2023/07/02 05:33:15;;;;;;;4.90;4.00;;;;;;;26.59;49.03;99299.68;106061;1254;62158;-74
2023/07/02 05:35:42;;;;;;;5.10;4.40;;;;;;;26.65;48.56;99297.55;106112;1254;61174;-75
2023/07/02 05:38:09;;;;;;;4.80;4.30;;;;;;;26.71;48.30;99293.60;106288;1254;65763;-73
2023/07/02 05:40:36;;;;;;;4.40;4.00;;;;;;;26.77;48.21;99293.89;106016;1254;61330;-74
2023/07/02 05:43:03;;;;;;;4.30;3.90;;;;;;;26.84;48.05;99292.61;106072;1257;63979;-72
2023/07/02 05:45:30;;;;;;;5.80;4.10;;;;;;;26.91;47.86;99293.01;106042;1259;61222;-73
2023/07/02 05:47:57;;;;;;;4.90;4.00;;;;;;;26.98;47.69;99290.10;105966;1254;61348;-74
2023/07/02 05:50:25;;;;;;;5.60;4.30;;;;;;;27.04;47.70;99289.77;106057;1257;66929;-74
2023/07/02 05:52:52;;;;;;;5.20;4.10;;;;;;;27.11;47.47;99290.38;106267;1254;61148;-74
2023/07/02 05:55:19;;;;;;;4.60;4.20;;;;;;;27.19;47.62;99288.12;106269;1254;64099;-73
2023/07/02 05:57:46;;;;;;;5.30;4.30;;;;;;;27.27;47.67;99289.61;106305;1254;61213;-73
2023/07/02 06:00:13;;;;;;;4.60;4.10;;;;;;;27.36;47.50;99288.92;106204;1254;61250;-74
2023/07/02 06:02:46;;;;;;;4.90;4.00;;;;;;;27.45;47.49;99288.63;106132;1257;66027;-74
2023/07/02 06:05:12;;;;;;;5.20;4.40;;;;;;;27.54;47.62;99285.93;106184;1254;61313;-74
2023/07/02 06:07:40;;;;;;;8.20;4.30;;;;;;;27.60;47.53;99282.89;106101;1255;63741;-74
2023/07/02 06:10:07;;;;;;;5.70;4.10;;;;;;;27.67;47.66;99284.33;105910;1254;61276;-73
2023/07/02 06:12:34;;;;;;;4.90;4.40;;;;;;;27.71;47.22;99285.19;106532;1253;61231;-75
2023/07/02 06:15:05;;;;;;;4.50;4.10;;;;;;;27.74;47.29;99285.90;106180;1254;67125;-73
2023/07/02 06:17:32;;;;;;;5.00;4.10;;;;;;;27.80;47.26;99285.84;105743;1254;61627;-73
2023/07/02 06:20:06;;;;;;;4.80;3.90;;;;;;;27.86;47.14;99287.88;105965;1257;62492;-72
2023/07/02 06:22:33;;;;;;;5.00;4.00;;;;;;;27.91;46.91;99290.09;105849;1254;61262;-76
2023/07/02 06:25:03;;;;;;;5.10;4.20;;;;;;;27.95;46.60;99287.94;105844;1256;61221;-74
2023/07/02 06:27:34;;;;;;;7.00;4.60;;;;;;;28.01;46.69;99286.08;105873;1256;65735;-75
2023/07/02 06:30:01;;;;;;;6.60;4.00;;;;;;;28.06;46.26;99283.06;105889;1253;61256;-74
2023/07/02 06:32:28;;;;;;;5.90;3.90;;;;;;;28.10;46.38;99284.77;105900;1257;63834;-74
2023/07/02 06:34:55;;;;;;;5.60;4.10;;;;;;;28.15;46.11;99284.25;105626;1254;61308;-72
2023/07/02 06:37:21;;;;;;;5.00;4.10;;;;;;;28.18;45.79;99283.51;105928;1254;61198;-74
2023/07/02 06:39:48;;;;;;;4.50;3.90;;;;;;;28.24;45.80;99285.45;105661;1260;66082;-73
2023/07/02 06:42:15;;;;;;;4.90;4.10;;;;;;;28.31;45.88;99284.74;106035;1254;61205;-73
2023/07/02 06:44:42;;;;;;;4.50;4.00;;;;;;;28.40;45.81;99285.73;105885;1254;62444;-73
2023/07/02 06:47:09;;;;;;;7.80;3.90;;;;;;;28.48;45.63;99280.98;105921;1253;61189;-74
2023/07/02 06:49:36;;;;;;;6.50;4.00;;;;;;;28.57;45.73;99282.31;105986;1254;61310;-73
2023/07/02 06:52:05;;;;;;;8.20;4.20;;;;;;;28.66;45.56;99290.17;105969;1254;64765;-75
2023/07/02 06:54:33;;;;;;;6.60;4.70;;;;;;;28.75;45.44;99294.11;105996;1254;61358;-73
2023/07/02 06:57:01;;;;;;;6.40;4.40;;;;;;;28.83;45.13;99292.56;105860;1254;63916;-75
2023/07/02 06:59:28;;;;;;;6.30;4.30;;;;;;;28.87;44.41;99290.73;105852;1254;61256;-76
2023/07/02 07:01:55;;;;;;;4.40;4.00;;;;;;;28.90;44.50;99290.42;105900;1253;61350;-74
2023/07/02 07:04:22;;;;;;;5.10;4.10;;;;;;;28.95;44.45;99290.40;105908;1256;180479;-75
2023/07/02 07:06:49;;;;;;;4.40;3.80;;;;;;;29.01;44.36;99289.64;105969;1254;61432;-76
2023/07/02 07:09:17;;;;;;;6.60;4.00;;;;;;;29.08;44.40;99286.83;105769;1254;63858;-73
2023/07/02 07:11:45;;;;;;;5.80;4.80;;;;;;;29.17;44.51;99284.13;105916;1254;61202;-77
2023/07/02 07:14:11;;;;;;;6.40;4.80;;;;;;;29.24;44.18;99283.75;106010;1254;61276;-77
2023/07/02 07:16:38;;;;;;;9.20;5.40;;;;;;;29.31;44.13;99286.25;108878;1254;65898;-74
2023/07/02 07:19:05;;;;;;;10.50;6.20;;;;;;;29.39;44.07;99286.96;109084;1253;59545;-71
2023/07/02 07:21:32;;;;;;;13.90;10.50;;;;;;;29.49;44.25;99284.91;109265;1253;62819;-75
2023/07/02 07:23:59;;;;;;;28.80;18.70;;;;;;;29.60;43.81;99285.42;109180;1253;59123;-74
2023/07/02 07:26:26;;;;;;;25.90;16.80;;;;;;;29.69;43.27;99284.97;109102;1253;60163;-75
2023/07/02 07:28:54;;;;;;;18.70;14.10;;;;;;;29.76;43.26;99283.12;109028;1253;66406;-73
2023/07/02 07:31:21;;;;;;;20.30;15.10;;;;;;;29.87;43.29;99280.88;108997;1254;59085;-74
2023/07/02 07:33:48;;;;;;;28.20;16.40;;;;;;;29.96;43.21;99284.23;109035;1253;63123;-76
2023/07/02 07:36:16;;;;;;;31.20;17.80;;;;;;;30.06;43.34;99282.42;109148;1253;60367;-75
2023/07/02 07:38:44;;;;;;;23.20;16.10;;;;;;;30.16;42.97;99281.86;109037;1253;59670;-73
2023/07/02 07:41:11;;;;;;;20.60;14.00;;;;;;;30.28;42.68;99284.45;109127;1253;73545;-74
2023/07/02 07:43:37;;;;;;;20.80;15.00;;;;;;;30.36;42.57;99281.80;106460;1254;61317;-73
2023/07/02 07:46:04;;;;;;;39.50;23.90;;;;;;;30.46;42.67;99283.39;106044;1254;62661;-73
2023/07/02 07:48:31;;;;;;;52.70;29.00;;;;;;;30.57;42.37;99282.05;105962;1253;63353;-73
2023/07/02 07:50:58;;;;;;;46.10;27.10;;;;;;;30.65;41.49;99282.02;106330;1254;61264;-75
2023/07/02 07:53:25;;;;;;;36.80;21.80;;;;;;;30.68;40.75;99279.30;106175;1252;66029;-70
2023/07/02 07:55:51;;;;;;;36.10;22.70;;;;;;;30.72;40.15;99277.86;106085;1253;61365;-69
2023/07/02 07:58:18;;;;;;;53.00;32.20;;;;;;;30.81;39.88;99278.14;105966;1254;64002;-70
2023/07/02 08:00:45;;;;;;;56.20;32.30;;;;;;;30.91;39.52;99275.25;105858;1253;61332;-69
2023/07/02 08:03:12;;;;;;;56.50;33.20;;;;;;;30.97;39.49;99274.34;105899;1254;61320;-70
2023/07/02 08:05:39;;;;;;;43.40;28.90;;;;;;;31.04;38.79;99272.76;106238;1256;65819;-74
2023/07/02 08:08:08;;;;;;;30.90;20.70;;;;;;;31.06;38.28;99272.41;106090;1254;61347;-76
2023/07/02 08:10:35;;;;;;;36.20;23.50;;;;;;;31.10;37.94;99273.59;105886;1259;62862;-74
2023/07/02 08:13:02;;;;;;;31.40;21.60;;;;;;;31.18;37.74;99274.10;106173;1256;61333;-75
2023/07/02 08:15:29;;;;;;;33.40;23.00;;;;;;;31.21;37.09;99269.39;106117;1254;61349;-74
2023/07/02 08:17:58;;;;;;;24.60;14.80;;;;;;;31.20;37.24;99267.92;105892;1254;66533;-76
2023/07/02 08:20:25;;;;;;;11.30;7.90;;;;;;;31.23;37.37;99268.18;105958;1253;61292;-75
2023/07/02 08:22:52;;;;;;;8.40;4.90;;;;;;;31.31;37.37;99267.35;105906;1254;64100;-77
2023/07/02 08:25:21;;;;;;;5.40;3.90;;;;;;;31.40;36.84;99269.36;105932;1254;61266;-77
2023/07/02 08:27:48;;;;;;;6.80;3.70;;;;;;;31.47;36.85;99267.23;106132;1254;61314;-77
2023/07/02 08:30:15;;;;;;;5.50;3.70;;;;;;;31.56;36.61;99271.91;106091;1253;65840;-77
2023/07/02 08:32:41;;;;;;;12.60;4.10;;;;;;;31.61;36.09;99270.87;106118;1254;61269;-77
2023/07/02 08:35:08;;;;;;;7.80;3.20;;;;;;;31.60;36.30;99273.73;106399;1254;64073;-75
2023/07/02 08:37:36;;;;;;;5.30;3.30;;;;;;;31.60;36.27;99271.43;105978;1254;61319;-73
2023/07/02 08:40:04;;;;;;;4.00;3.00;;;;;;;31.58;36.65;99269.59;106033;1256;61182;-72
2023/07/02 08:42:34;;;;;;;7.90;3.20;;;;;;;31.62;35.78;99269.27;106219;1254;65978;-73
2023/07/02 08:45:01;;;;;;;11.30;3.70;;;;;;;31.66;36.23;99267.49;105794;1260;61158;-74
2023/07/02 08:47:28;;;;;;;7.20;3.40;;;;;;;31.80;36.22;99266.34;106049;1256;62602;-74
2023/07/02 08:49:55;;;;;;;33.00;5.20;;;;;;;31.95;36.10;99263.92;106093;1254;61263;-75
2023/07/02 08:52:22;;;;;;;10.30;3.60;;;;;;;32.03;36.28;99264.59;105891;1254;61396;-75
2023/07/02 08:54:49;;;;;;;5.00;3.30;;;;;;;32.13;35.68;99268.73;106037;1253;65967;-74
2023/07/02 08:57:17;;;;;;;5.50;3.00;;;;;;;32.18;35.27;99264.59;106235;1254;61442;-75
2023/07/02 08:59:44;;;;;;;5.90;3.30;;;;;;;32.23;35.28;99267.15;106067;1256;63984;-75
2023/07/02 09:02:11;;;;;;;14.20;3.80;;;;;;;32.27;34.81;99266.61;106179;1257;61150;-75
2023/07/02 09:04:38;;;;;;;9.30;3.40;;;;;;;32.32;35.27;99271.00;106250;1254;61257;-75
2023/07/02 09:07:09;;;;;;;11.60;3.70;;;;;;;32.43;35.59;99271.36;105837;1257;64740;-77
2023/07/02 09:09:56;;;;;;;4.70;3.40;;;;;;;32.52;35.27;99268.13;105889;1258;61301;-74
2023/07/02 09:12:30;;;;;;;11.30;3.20;;;;;;;32.61;35.39;99259.88;106310;1254;63887;-75
2023/07/02 09:14:59;;;;;;;4.70;2.90;;;;;;;32.75;35.77;99258.30;106288;1253;61192;-75
2023/07/02 09:17:28;;;;;;;15.30;3.80;;;;;;;32.93;35.97;99260.80;106265;1253;61349;-74
2023/07/02 09:19:58;;;;;;;7.10;2.90;;;;;;;33.09;34.75;99258.45;106578;1254;66537;-76
2023/07/02 09:22:25;;;;;;;5.00;3.00;;;;;;;33.20;34.20;99258.88;106819;1254;61230;-76
2023/07/02 09:24:53;;;;;;;5.10;2.80;;;;;;;33.26;33.80;99257.23;106489;1257;63997;-77
2023/07/02 09:27:21;;;;;;;5.50;3.30;;;;;;;33.32;34.00;99251.08;106952;1253;61319;-78
2023/07/02 09:29:54;;;;;;;4.10;2.90;;;;;;;33.40;33.93;99247.30;106493;1253;61227;-75
2023/07/02 09:32:26;;;;;;;18.00;4.00;;;;;;;33.48;33.73;99244.10;106183;1257;66043;-76
2023/07/02 09:34:57;;;;;;;3.60;3.30;;;;;;;33.61;34.11;99249.45;105745;1254;61420;-77
2023/07/02 09:37:24;;;;;;;6.30;2.80;;;;;;;33.79;33.27;99250.17;105949;1254;63861;-73
2023/07/02 09:39:52;;;;;;;6.80;3.00;;;;;;;33.95;31.93;99248.69;105871;1253;61311;-74
2023/07/02 09:42:19;;;;;;;5.90;2.80;;;;;;;34.04;31.61;99238.65;105876;1253;61200;-73
2023/07/02 09:44:46;;;;;;;7.50;3.10;;;;;;;34.10;31.45;99234.96;106033;1253;66010;-71
2023/07/02 09:47:14;;;;;;;3.90;2.80;;;;;;;34.21;31.29;99232.89;105867;1254;61254;-75
2023/07/02 09:49:50;;;;;;;3.90;2.30;;;;;;;34.32;30.92;99230.30;105876;1254;64044;-76
2023/07/02 09:52:18;;;;;;;5.20;2.60;;;;;;;34.43;30.94;99226.80;105651;1254;61245;-75
2023/07/02 09:54:45;;;;;;;4.60;2.70;;;;;;;34.57;30.65;99224.97;106093;1253;61218;-76
2023/07/02 09:57:12;;;;;;;4.70;2.50;;;;;;;34.63;30.14;99223.83;106457;1254;67353;-75
2023/07/02 09:59:41;;;;;;;4.90;2.70;;;;;;;34.62;30.37;99225.33;105922;1254;61218;-72
2023/07/02 10:02:11;;;;;;;3.20;2.80;;;;;;;34.69;30.21;99219.91;106042;1253;64314;-75
2023/07/02 10:04:42;;;;;;;4.90;2.60;;;;;;;34.77;30.56;99214.75;105814;1254;60077;-73
2023/07/02 10:07:09;;;;;;;9.70;2.90;;;;;;;34.87;30.14;99215.56;105829;1252;62667;-72
2023/07/02 10:09:37;;;;;;;10.90;2.90;;;;;;;35.00;29.80;99215.88;105755;1257;65876;-73
2023/07/02 10:12:24;;;;;;;4.70;2.60;;;;;;;35.16;29.68;99211.87;106050;1256;61275;-74
2023/07/02 10:14:53;;;;;;;4.70;2.50;;;;;;;35.34;29.45;99209.79;106022;1253;63745;-73
2023/07/02 10:17:38;;;;;;;4.40;2.60;;;;;;;35.38;29.17;99209.46;105883;1253;61359;-73
2023/07/02 10:20:11;;;;;;;3.60;2.70;;;;;;;35.30;28.78;99216.05;105932;1253;61154;-73
2023/07/02 10:22:46;;;;;;;6.10;2.50;;;;;;;35.22;28.48;99217.91;105889;1256;65885;-73
2023/07/02 10:25:12;;;;;;;5.10;2.70;;;;;;;35.21;28.45;99218.70;105820;1254;61720;-74
2023/07/02 10:27:41;;;;;;;5.70;2.50;;;;;;;35.23;28.01;99220.38;105702;1257;63970;-74
2023/07/02 10:30:10;;;;;;;7.90;2.20;;;;;;;35.15;27.90;99217.44;105961;1253;61286;-73
2023/07/02 10:32:38;;;;;;;7.70;2.30;;;;;;;35.08;28.40;99211.59;105570;1254;61285;-75
2023/07/02 10:35:15;;;;;;;8.40;2.40;;;;;;;35.03;28.26;99214.83;105701;1256;66121;-76
2023/07/02 10:37:44;;;;;;;2.90;2.30;;;;;;;34.90;27.94;99210.89;105527;1254;61326;-74
2023/07/02 10:40:11;;;;;;;3.40;2.50;;;;;;;34.82;28.14;99206.08;105817;1254;64012;-74
2023/07/02 10:42:48;;;;;;;7.50;2.30;;;;;;;34.73;28.01;99197.63;105778;1254;61134;-74
2023/07/02 10:45:15;;;;;;;3.00;2.20;;;;;;;34.70;28.14;99198.11;105674;1254;61286;-74
2023/07/02 10:47:43;;;;;;;5.70;2.20;;;;;;;34.80;27.79;99194.70;105793;1256;66032;-74
2023/07/02 10:50:23;;;;;;;7.10;2.10;;;;;;;34.98;28.07;99193.52;105900;1254;61249;-73
2023/07/02 10:52:52;;;;;;;6.50;1.90;;;;;;;35.21;26.98;99190.42;105803;1252;63717;-73
2023/07/02 10:55:20;;;;;;;3.00;2.10;;;;;;;35.33;26.06;99198.48;105785;1256;61256;-75
2023/07/02 10:57:53;;;;;;;4.90;2.00;;;;;;;35.30;26.00;99196.91;106056;1256;61349;-75
2023/07/02 11:00:20;;;;;;;4.60;2.00;;;;;;;35.33;26.53;99193.77;106029;1254;65873;-74
2023/07/02 11:02:48;;;;;;;3.60;2.10;;;;;;;35.51;26.41;99192.76;105969;1254;61339;-74
2023/07/02 11:05:15;;;;;;;3.80;1.90;;;;;;;35.64;25.67;99195.17;105627;1259;64102;-73
2023/07/02 11:07:43;;;;;;;3.40;1.70;;;;;;;35.66;25.21;99183.30;105826;1254;61191;-74
2023/07/02 11:10:11;;;;;;;3.00;2.00;;;;;;;35.72;24.79;99182.91;105832;1253;61211;-74
2023/07/02 11:12:40;;;;;;;3.80;1.90;;;;;;;35.77;24.49;99188.95;105834;1259;65847;-73
2023/07/02 11:15:13;;;;;;;4.90;2.00;;;;;;;35.82;24.90;99184.66;105937;1254;61247;-73
2023/07/02 11:17:41;;;;;;;2.60;1.50;;;;;;;35.93;24.11;99180.74;105828;1254;64012;-72
2023/07/02 11:20:09;;;;;;;7.30;1.90;;;;;;;36.00;23.91;99180.67;105899;1254;61309;-72
2023/07/02 11:22:37;;;;;;;9.90;2.00;;;;;;;36.12;23.56;99181.55;105625;1254;61330;-73
2023/07/02 11:25:18;;;;;;;2.30;1.60;;;;;;;36.20;24.15;99181.08;105752;1256;66107;-73
2023/07/02 11:27:45;;;;;;;3.20;1.80;;;;;;;36.32;23.80;99182.36;105646;1254;61302;-73
2023/07/02 11:30:12;;;;;;;3.50;1.90;;;;;;;36.42;23.46;99179.30;105796;1254;63685;-73